Hlavní strana
METAR-TAF:

METAR-TAF

Letiště :

Bessemer, Alabama, Spojené státy americké

zeměpisná šířka: 33-18-45N, zeměpisná délka: 086-55-35W, výška: 213 m

Aktuální stav počasí

Zpráva byla vytvořena před 38 minutami, v 16:56 UTC
Severní vítr 6 kt
Teplota 5°C
Vlhkost vzduchu 87%
Tlak 1024 hPa
Viditelnost: 16.1 km
Polojasno ve výšce 5000 ft
Zataženo ve výšce 6000 ft
slabý déšť

METAR: KEKY 151656Z AUTO 35006KT 10SM -RA SCT050 OVC060 05/03 A3024 RMK AO2 SLP088 P0002 T00500028

Čas: 11:34 (17:34 UTC)


TAF: chybějící

Stav a předpovědi počasí z více než 4 000 letišť (zprávy METAR a TAF).

Červené a žluté tečky na mapě představují dostupné meteorologické stanice.

Když kurzor umístíte na tečku, zobrazí se název stanice.

Pak kliknutím zobrazíte stav a předpověď počasí.

Chcete-li změnit mapu, kliknutím na zelené tlačítko se znaménkem +mapu přiblížíte, kliknutím na zelené tlačítko se znaménkem – mapu oddálíte a kliknutím na zelené šipky přejdete na sousední mapy.


METAR-TAF: